METAR Data
IDs: Format: Raw Decoded Include TAF

Data at: 1346 UTC 12 Dec 2018

PAAK 121256Z AUTO 26008KT 10SM BKN110 01/M03 A2958 RMK AO2 SLP019 T00111028 FZRANO PNO $
PAAK 121156Z AUTO 24007KT 10SM FEW040 M01/M03 A2958 RMK AO2 SLP019 6//// 7//// T10061028 10011 21017 56015 FZRANO PNO $
PAAK 121056Z AUTO 23005KT 10SM FEW024 M01/M02 A2959 RMK AO2 UPB38E47SNE38 SLP022 T10111022 FZRANO PNO $
PAAK 121041Z AUTO 23003KT 10SM UP SCT011 SCT027 BKN037 M01/M02 A2960 RMK AO2 UPB38SNE38 FZRANO PNO $
PAAK 121035Z AUTO 00000KT 7SM -SN SCT011 BKN027 BKN038 M01/M02 A2960 RMK AO2 FZRANO PNO $
PAAK 121028Z AUTO 00000KT 4SM -SN BR BKN011 BKN026 OVC047 M01/M01 A2960 RMK AO2 CIG 006V021 FZRANO PNO $
PAAK 121019Z AUTO 00000KT 2SM -SN BR SCT008 BKN015 OVC038 00/M01 A2960 RMK AO2 VIS 1 1/4V5 FZRANO PNO $
PAAK 121012Z AUTO 21005KT 3SM -SN BR SCT004 BKN014 OVC043 00/M01 A2960 RMK AO2 FZRANO PNO $
PAAK 121004Z AUTO 28007KT 2SM -SN BR BKN004 BKN014 OVC027 00/M01 A2960 RMK AO2 CIG 003V008 FZRANO PNO $
PAAK 121000Z AUTO 29007KT 270V340 1SM -SN BR BKN004 OVC027 00/M01 A2960 RMK AO2 CIG 003V010 FZRANO PNO $
PAAK 120956Z AUTO 32006KT 1/2SM SN FG OVC004 00/M01 A2960 RMK AO2 CIG 003V008 SLP023 T00001011 FZRANO PNO $
PAAK 120936Z AUTO 12011KT 1/4SM +SN FG BKN004 OVC010 00/M01 A2961 RMK AO2 CIG 003V008 FZRANO PNO $
PAAK 120930Z AUTO 13011KT 1/2SM SN FG SCT006 BKN010 OVC016 00/M02 A2961 RMK AO2 CIG 009V014 FZRANO PNO $
PAAK 120926Z AUTO 14010KT 1SM -SN BR FEW006 BKN010 OVC018 00/M02 A2962 RMK AO2 FZRANO PNO $
PAAK 120922Z AUTO 14011KT 1 3/4SM -SN BR BKN010 BKN015 OVC038 00/M02 A2962 RMK AO2 CIG 007V014 FZRANO PNO $
PAAK 120919Z AUTO 13008KT 2SM -SN BR SCT010 BKN017 OVC038 00/M02 A2962 RMK AO2 FZRANO PNO $
PAAK 120856Z AUTO 12012KT 3SM -SN BR SCT008 BKN015 OVC044 00/M02 A2963 RMK AO2 RAB32E35SNE19B35 SLP035 6//// T00001017 400111061 58014 FZRANO PNO $
PAAK 120853Z AUTO 13013KT 2SM -SN BR SCT008 BKN015 OVC047 00/M02 A2963 RMK AO2 VIS 1 1/4V4 RAB32E35SNE19B35 400111061 FZRANO PNO $
PAAK 120848Z AUTO 13010KT 1 1/4SM -SN BR BKN008 BKN024 OVC045 00/M02 A2963 RMK AO2 RAB32E35SNE19B35 CIG 006V013 FZRANO PNO $
PAAK 120843Z AUTO 13010G20KT 3/4SM -SN BR BKN008 BKN037 OVC050 M01/M02 A2964 RMK AO2 RAB32E35SNE19B35 CIG 006V013 FZRANO PNO $
PAAK 120837Z AUTO 14012G20KT 1 3/4SM -SN FEW008 BKN045 OVC050 00/M03 A2964 RMK AO2 RAB32E35SNE19B35 FZRANO PNO $
PAAK 120756Z AUTO 14013G19KT 10SM -SN SCT046 BKN055 OVC070 01/M06 A2965 RMK AO2 RAB53E55SNB55 SLP041 T00111056 FZRANO PNO $
PAAK 120656Z AUTO 15011KT 10SM FEW041 BKN050 OVC090 01/M07 A2966 RMK AO2 SLP045 T00111067 FZRANO PNO $
PAAK 120556Z AUTO 19003KT 10SM OVC085 M01/M06 A2967 RMK AO2 SLP048 6//// T10111061 10011 21028 50001 FZRANO PNO $
PAAK 120456Z AUTO 00000KT 10SM BKN095 BKN120 M03/M07 A2968 RMK AO2 SLP052 T10281072 FZRANO PNO $
PAAK 120356Z AUTO 00000KT 10SM OVC110 M02/M08 A2967 RMK AO2 SLP049 T10221078 FZRANO PNO $
PAAK 120256Z AUTO 00000KT 10SM OVC120 M02/M07 A2966 RMK AO2 SLP048 6//// T10171072 52007 FZRANO PNO $
PAAK 120156Z AUTO 00000KT 10SM FEW110 M01/M06 A2966 RMK AO2 SLP044 T10061056 FZRANO PNO $
PAAK 120056Z AUTO 28005KT 10SM SCT120 00/M06 A2965 RMK AO2 SLP042 T00001061 FZRANO PNO $
PAAK 112356Z AUTO 00000KT 10SM CLR 01/M07 A2964 RMK AO2 SLP040 6//// T00111072 10011 21033 51010 FZRANO PNO $
PAAK 112256Z AUTO 28004KT 10SM CLR 00/M07 A2964 RMK AO2 SLP039 T00001067 FZRANO PNO $
PAAK 112156Z AUTO 33006KT 10SM CLR 00/M06 A2963 RMK AO2 SLP036 T00001056 FZRANO PNO $
PAAK 112056Z AUTO 31003KT 10SM CLR M02/M06 A2961 RMK AO2 SLP030 6//// T10171056 52021 FZRANO PNO $
PAAK 111956Z AUTO 31005KT 10SM CLR M03/M07 A2960 RMK AO2 SLP023 T10281072 FZRANO PNO $
PAAK 111856Z AUTO 31003KT 10SM BKN046 M03/M07 A2957 RMK AO2 SLP015 T10281072 FZRANO PNO $
PAAK 111756Z AUTO 31004KT 10SM SCT042 M03/M07 A2955 RMK AO2 SLP010 6//// T10281067 11022 21061 53003 FZRANO PNO $
PAAK 111656Z AUTO 34005KT 10SM BKN046 M03/M07 A2954 RMK AO2 SLP005 T10281067 FZRANO PNO $
PAAK 111556Z AUTO 33004KT 10SM CLR M04/M08 A2954 RMK AO2 SLP004 T10441083 FZRANO PNO $
PAAK 111456Z AUTO 00000KT 10SM CLR M06/M08 A2954 RMK AO2 SLP007 6//// T10561078 56007 FZRANO PNO $
PAAK 111356Z AUTO 35003KT 10SM CLR M04/M08 A2955 RMK AO2 SLP006 T10441083 FZRANO PNO $
PAAK 111256Z AUTO 00000KT 10SM CLR M04/M08 A2955 RMK AO2 SLP010 T10391078 FZRANO PNO $
PAAK 111156Z AUTO 30003KT 10SM CLR M04/M07 A2957 RMK AO2 SLP013 6//// 7//// T10391067 10000 21044 56012 FZRANO PNO $
PAAK 111056Z AUTO 00000KT 10SM CLR M04/M07 A2957 RMK AO2 SLP017 T10391067 FZRANO PNO $
PAAK 110956Z AUTO 00000KT 10SM CLR M03/M07 A2959 RMK AO2 SLP022 T10331067 FZRANO PNO $
PAAK 110856Z AUTO 00000KT 10SM CLR M03/M06 A2960 RMK AO2 SLP026 6//// T10281056 400281028 58001 FZRANO PNO $
PAAK 110756Z AUTO 00000KT 10SM BKN042 OVC049 M02/M05 A2962 RMK AO2 SLP031 T10171050 FZRANO PNO $
PAAK 110656Z AUTO 28008KT 10SM SCT040 SCT049 M01/M06 A2962 RMK AO2 SLP031 T10111056 FZRANO PNO $
PAAK 110556Z AUTO 29006KT 10SM SCT039 BKN047 00/M04 A2960 RMK AO2 SLP026 6//// T00001039 10011 21006 53018 FZRANO PNO $
PAAK 110456Z AUTO 30009KT 10SM SCT038 BKN046 00/M05 A2959 RMK AO2 SLP020 T00001050 FZRANO PNO $
PAAK 110356Z AUTO 30009KT 10SM FEW033 00/M04 A2957 RMK AO2 SLP014 T00001044 FZRANO PNO $
PAAK 110309Z AUTO 29009KT 10SM FEW019 SCT027 BKN032 00/M04 A2956 RMK AO2 FZRANO PNO $
PAAK 110256Z AUTO 30009KT 10SM FEW019 BKN025 BKN034 00/M03 A2955 RMK AO2 RAB06E08UPB27E30SNB08E27 SLP008 6//// T00001028 52016 FZRANO PNO $
PAAK 110156Z AUTO 29014G22KT 10SM FEW027 BKN033 01/M06 A2953 RMK AO2 RAB05E26SNB10E19 SLP000 T00111056 FZRANO PNO $